sensor_id;sensor_type;location;lat;lon;timestamp;P1;durP1;ratioP1;P2;durP2;ratioP2
78732;SDS011;68056;52.530;5.454;2023-09-07T00:01:25;2.42;;;1.27;;
78732;SDS011;68056;52.530;5.454;2023-09-07T00:03:51;1.65;;;1.38;;
78732;SDS011;68056;52.530;5.454;2023-09-07T00:06:16;2.25;;;1.17;;
78732;SDS011;68056;52.530;5.454;2023-09-07T00:08:43;1.58;;;1.30;;
78732;SDS011;68056;52.530;5.454;2023-09-07T00:11:09;2.50;;;1.23;;
78732;SDS011;68056;52.530;5.454;2023-09-07T00:13:35;1.35;;;1.25;;
78732;SDS011;68056;52.530;5.454;2023-09-07T00:16:02;2.38;;;1.60;;
78732;SDS011;68056;52.530;5.454;2023-09-07T00:18:28;3.53;;;1.40;;
78732;SDS011;68056;52.530;5.454;2023-09-07T00:20:55;2.40;;;1.20;;
78732;SDS011;68056;52.530;5.454;2023-09-07T00:23:20;2.33;;;1.58;;
78732;SDS011;68056;52.530;5.454;2023-09-07T00:25:46;1.80;;;1.30;;
78732;SDS011;68056;52.530;5.454;2023-09-07T00:28:12;2.35;;;1.27;;
78732;SDS011;68056;52.530;5.454;2023-09-07T00:30:38;2.20;;;1.30;;
78732;SDS011;68056;52.530;5.454;2023-09-07T00:33:04;2.25;;;1.60;;
78732;SDS011;68056;52.530;5.454;2023-09-07T00:35:30;1.58;;;1.20;;
78732;SDS011;68056;52.530;5.454;2023-09-07T00:37:56;1.73;;;1.10;;
78732;SDS011;68056;52.530;5.454;2023-09-07T00:40:21;1.98;;;1.50;;
78732;SDS011;68056;52.530;5.454;2023-09-07T00:42:47;2.22;;;1.48;;
78732;SDS011;68056;52.530;5.454;2023-09-07T00:45:13;1.70;;;1.38;;
78732;SDS011;68056;52.530;5.454;2023-09-07T00:47:39;1.40;;;1.25;;
78732;SDS011;68056;52.530;5.454;2023-09-07T00:50:05;1.55;;;1.38;;
78732;SDS011;68056;52.530;5.454;2023-09-07T00:52:32;1.70;;;1.50;;
78732;SDS011;68056;52.530;5.454;2023-09-07T00:57:24;2.05;;;1.08;;
78732;SDS011;68056;52.530;5.454;2023-09-07T00:59:50;1.63;;;1.17;;
78732;SDS011;68056;52.530;5.454;2023-09-07T01:02:16;0.77;;;0.68;;
78732;SDS011;68056;52.530;5.454;2023-09-07T01:04:41;1.38;;;1.23;;
78732;SDS011;68056;52.530;5.454;2023-09-07T01:09:39;1.13;;;1.02;;
78732;SDS011;68056;52.530;5.454;2023-09-07T01:12:07;1.50;;;1.10;;
78732;SDS011;68056;52.530;5.454;2023-09-07T01:14:36;2.17;;;1.63;;
78732;SDS011;68056;52.530;5.454;2023-09-07T01:17:01;1.20;;;1.10;;
78732;SDS011;68056;52.530;5.454;2023-09-07T01:19:28;2.13;;;1.10;;
78732;SDS011;68056;52.530;5.454;2023-09-07T01:21:54;1.55;;;1.45;;
78732;SDS011;68056;52.530;5.454;2023-09-07T01:24:20;2.70;;;1.60;;
78732;SDS011;68056;52.530;5.454;2023-09-07T01:29:14;1.42;;;1.10;;
78732;SDS011;68056;52.530;5.454;2023-09-07T01:31:42;2.17;;;1.45;;
78732;SDS011;68056;52.530;5.454;2023-09-07T01:34:07;1.10;;;1.00;;
78732;SDS011;68056;52.530;5.454;2023-09-07T01:36:33;1.38;;;1.00;;
78732;SDS011;68056;52.530;5.454;2023-09-07T01:39:00;1.67;;;1.35;;
78732;SDS011;68056;52.530;5.454;2023-09-07T01:41:26;1.40;;;1.05;;
78732;SDS011;68056;52.530;5.454;2023-09-07T01:43:51;1.48;;;1.30;;
78732;SDS011;68056;52.530;5.454;2023-09-07T01:46:17;1.60;;;1.30;;
78732;SDS011;68056;52.530;5.454;2023-09-07T01:48:43;1.35;;;1.17;;
78732;SDS011;68056;52.530;5.454;2023-09-07T01:51:08;1.33;;;1.13;;
78732;SDS011;68056;52.530;5.454;2023-09-07T01:53:34;1.30;;;1.08;;
78732;SDS011;68056;52.530;5.454;2023-09-07T01:56:00;2.03;;;1.45;;
78732;SDS011;68056;52.530;5.454;2023-09-07T01:58:25;1.27;;;1.17;;
78732;SDS011;68056;52.530;5.454;2023-09-07T02:00:57;1.88;;;1.33;;
78732;SDS011;68056;52.530;5.454;2023-09-07T02:03:24;2.00;;;1.48;;
78732;SDS011;68056;52.530;5.454;2023-09-07T02:05:52;1.38;;;1.27;;
78732;SDS011;68056;52.530;5.454;2023-09-07T02:08:19;1.52;;;1.10;;
78732;SDS011;68056;52.530;5.454;2023-09-07T02:10:44;1.63;;;1.38;;
78732;SDS011;68056;52.530;5.454;2023-09-07T02:13:12;1.50;;;1.23;;
78732;SDS011;68056;52.530;5.454;2023-09-07T02:15:38;1.90;;;1.27;;
78732;SDS011;68056;52.530;5.454;2023-09-07T02:18:04;2.63;;;1.50;;
78732;SDS011;68056;52.530;5.454;2023-09-07T02:20:32;1.75;;;1.30;;
78732;SDS011;68056;52.530;5.454;2023-09-07T02:22:58;1.67;;;1.17;;
78732;SDS011;68056;52.530;5.454;2023-09-07T02:25:24;1.33;;;1.23;;
78732;SDS011;68056;52.530;5.454;2023-09-07T02:27:50;1.85;;;1.58;;
78732;SDS011;68056;52.530;5.454;2023-09-07T02:30:16;1.95;;;1.40;;
78732;SDS011;68056;52.530;5.454;2023-09-07T02:32:42;1.13;;;1.02;;
78732;SDS011;68056;52.530;5.454;2023-09-07T02:35:08;1.45;;;1.20;;
78732;SDS011;68056;52.530;5.454;2023-09-07T02:37:35;1.40;;;1.30;;
78732;SDS011;68056;52.530;5.454;2023-09-07T02:40:01;1.48;;;1.38;;
78732;SDS011;68056;52.530;5.454;2023-09-07T02:42:28;1.88;;;1.25;;
78732;SDS011;68056;52.530;5.454;2023-09-07T02:44:53;1.73;;;1.52;;
78732;SDS011;68056;52.530;5.454;2023-09-07T02:47:19;1.50;;;1.17;;
78732;SDS011;68056;52.530;5.454;2023-09-07T02:49:44;2.30;;;1.38;;
78732;SDS011;68056;52.530;5.454;2023-09-07T02:52:10;2.28;;;1.30;;
78732;SDS011;68056;52.530;5.454;2023-09-07T02:54:35;1.70;;;1.42;;
78732;SDS011;68056;52.530;5.454;2023-09-07T02:57:01;2.55;;;1.38;;
78732;SDS011;68056;52.530;5.454;2023-09-07T02:59:27;1.40;;;1.20;;
78732;SDS011;68056;52.530;5.454;2023-09-07T03:01:53;1.63;;;1.50;;
78732;SDS011;68056;52.530;5.454;2023-09-07T03:04:18;1.50;;;1.13;;
78732;SDS011;68056;52.530;5.454;2023-09-07T03:06:44;1.40;;;1.30;;
78732;SDS011;68056;52.530;5.454;2023-09-07T03:09:09;2.67;;;1.65;;
78732;SDS011;68056;52.530;5.454;2023-09-07T03:11:35;1.80;;;1.48;;
78732;SDS011;68056;52.530;5.454;2023-09-07T03:14:00;2.13;;;1.48;;
78732;SDS011;68056;52.530;5.454;2023-09-07T03:16:26;1.60;;;1.45;;
78732;SDS011;68056;52.530;5.454;2023-09-07T03:18:52;2.03;;;1.52;;
78732;SDS011;68056;52.530;5.454;2023-09-07T03:21:17;2.50;;;1.42;;
78732;SDS011;68056;52.530;5.454;2023-09-07T03:23:43;2.55;;;1.42;;
78732;SDS011;68056;52.530;5.454;2023-09-07T03:26:10;1.77;;;1.50;;
78732;SDS011;68056;52.530;5.454;2023-09-07T03:28:35;2.42;;;1.45;;
78732;SDS011;68056;52.530;5.454;2023-09-07T03:31:01;1.95;;;1.42;;
78732;SDS011;68056;52.530;5.454;2023-09-07T03:33:27;1.85;;;1.45;;
78732;SDS011;68056;52.530;5.454;2023-09-07T03:35:53;2.72;;;1.67;;
78732;SDS011;68056;52.530;5.454;2023-09-07T03:38:23;1.40;;;1.20;;
78732;SDS011;68056;52.530;5.454;2023-09-07T03:40:49;1.75;;;1.48;;
78732;SDS011;68056;52.530;5.454;2023-09-07T03:43:14;1.55;;;1.40;;
78732;SDS011;68056;52.530;5.454;2023-09-07T03:45:40;1.55;;;1.40;;
78732;SDS011;68056;52.530;5.454;2023-09-07T03:48:06;1.83;;;1.52;;
78732;SDS011;68056;52.530;5.454;2023-09-07T03:50:31;2.08;;;1.50;;
78732;SDS011;68056;52.530;5.454;2023-09-07T03:52:57;1.90;;;1.60;;
78732;SDS011;68056;52.530;5.454;2023-09-07T03:55:23;1.75;;;1.50;;
78732;SDS011;68056;52.530;5.454;2023-09-07T03:57:49;3.42;;;1.83;;
78732;SDS011;68056;52.530;5.454;2023-09-07T04:00:14;1.98;;;1.75;;
78732;SDS011;68056;52.530;5.454;2023-09-07T04:02:41;2.42;;;1.90;;
78732;SDS011;68056;52.530;5.454;2023-09-07T04:05:06;1.95;;;1.67;;
78732;SDS011;68056;52.530;5.454;2023-09-07T04:07:32;1.65;;;1.55;;
78732;SDS011;68056;52.530;5.454;2023-09-07T04:09:58;1.83;;;1.63;;
78732;SDS011;68056;52.530;5.454;2023-09-07T04:12:24;3.88;;;1.73;;
78732;SDS011;68056;52.530;5.454;2023-09-07T04:14:50;2.20;;;1.70;;
78732;SDS011;68056;52.530;5.454;2023-09-07T04:17:16;2.03;;;1.70;;
78732;SDS011;68056;52.530;5.454;2023-09-07T04:19:41;1.35;;;1.25;;
78732;SDS011;68056;52.530;5.454;2023-09-07T04:22:08;2.20;;;2.00;;
78732;SDS011;68056;52.530;5.454;2023-09-07T04:24:35;5.07;;;1.73;;
78732;SDS011;68056;52.530;5.454;2023-09-07T04:27:01;1.65;;;1.50;;
78732;SDS011;68056;52.530;5.454;2023-09-07T04:29:27;1.58;;;1.30;;
78732;SDS011;68056;52.530;5.454;2023-09-07T04:31:53;2.33;;;1.75;;
78732;SDS011;68056;52.530;5.454;2023-09-07T04:34:20;2.33;;;1.50;;
78732;SDS011;68056;52.530;5.454;2023-09-07T04:36:46;2.97;;;1.73;;
78732;SDS011;68056;52.530;5.454;2023-09-07T04:39:12;2.42;;;1.40;;
78732;SDS011;68056;52.530;5.454;2023-09-07T04:44:05;2.25;;;1.25;;
78732;SDS011;68056;52.530;5.454;2023-09-07T04:46:30;2.10;;;1.65;;
78732;SDS011;68056;52.530;5.454;2023-09-07T04:48:56;1.80;;;1.40;;
78732;SDS011;68056;52.530;5.454;2023-09-07T04:51:21;1.70;;;1.50;;
78732;SDS011;68056;52.530;5.454;2023-09-07T04:53:49;3.22;;;1.65;;
78732;SDS011;68056;52.530;5.454;2023-09-07T04:56:14;2.28;;;1.30;;
78732;SDS011;68056;52.530;5.454;2023-09-07T04:58:41;2.20;;;1.60;;
78732;SDS011;68056;52.530;5.454;2023-09-07T05:01:08;1.70;;;1.48;;
78732;SDS011;68056;52.530;5.454;2023-09-07T05:03:35;2.53;;;1.65;;
78732;SDS011;68056;52.530;5.454;2023-09-07T05:06:01;1.55;;;1.25;;
78732;SDS011;68056;52.530;5.454;2023-09-07T05:08:28;1.83;;;1.50;;
78732;SDS011;68056;52.530;5.454;2023-09-07T05:10:57;2.03;;;1.42;;
78732;SDS011;68056;52.530;5.454;2023-09-07T05:13:24;1.40;;;1.30;;
78732;SDS011;68056;52.530;5.454;2023-09-07T05:15:51;2.28;;;1.50;;
78732;SDS011;68056;52.530;5.454;2023-09-07T05:18:17;3.28;;;1.40;;
78732;SDS011;68056;52.530;5.454;2023-09-07T05:20:43;2.13;;;1.80;;
78732;SDS011;68056;52.530;5.454;2023-09-07T05:23:19;2.13;;;1.73;;
78732;SDS011;68056;52.530;5.454;2023-09-07T05:25:45;1.75;;;1.60;;
78732;SDS011;68056;52.530;5.454;2023-09-07T05:28:18;2.50;;;1.40;;
78732;SDS011;68056;52.530;5.454;2023-09-07T05:30:44;2.00;;;1.60;;
78732;SDS011;68056;52.530;5.454;2023-09-07T05:33:10;2.15;;;1.70;;
78732;SDS011;68056;52.530;5.454;2023-09-07T05:35:37;2.95;;;1.80;;
78732;SDS011;68056;52.530;5.454;2023-09-07T05:38:03;1.98;;;1.50;;
78732;SDS011;68056;52.530;5.454;2023-09-07T05:40:29;3.05;;;1.85;;
78732;SDS011;68056;52.530;5.454;2023-09-07T05:42:58;2.30;;;1.83;;
78732;SDS011;68056;52.530;5.454;2023-09-07T05:45:24;1.70;;;1.48;;
78732;SDS011;68056;52.530;5.454;2023-09-07T05:47:50;2.67;;;1.50;;
78732;SDS011;68056;52.530;5.454;2023-09-07T05:50:16;3.13;;;1.77;;
78732;SDS011;68056;52.530;5.454;2023-09-07T05:52:41;2.97;;;2.00;;
78732;SDS011;68056;52.530;5.454;2023-09-07T05:55:07;2.50;;;1.52;;
78732;SDS011;68056;52.530;5.454;2023-09-07T05:57:33;2.20;;;1.73;;
78732;SDS011;68056;52.530;5.454;2023-09-07T05:59:58;1.85;;;1.50;;
78732;SDS011;68056;52.530;5.454;2023-09-07T06:02:24;2.22;;;1.77;;
78732;SDS011;68056;52.530;5.454;2023-09-07T06:04:50;2.00;;;1.70;;
78732;SDS011;68056;52.530;5.454;2023-09-07T06:07:15;3.80;;;1.80;;
78732;SDS011;68056;52.530;5.454;2023-09-07T06:09:42;3.05;;;2.00;;
78732;SDS011;68056;52.530;5.454;2023-09-07T06:12:07;2.00;;;1.80;;
78732;SDS011;68056;52.530;5.454;2023-09-07T06:14:33;1.80;;;1.50;;
78732;SDS011;68056;52.530;5.454;2023-09-07T06:16:58;2.20;;;1.70;;
78732;SDS011;68056;52.530;5.454;2023-09-07T06:19:24;1.98;;;1.77;;
78732;SDS011;68056;52.530;5.454;2023-09-07T06:21:50;3.50;;;2.38;;
78732;SDS011;68056;52.530;5.454;2023-09-07T06:24:16;3.22;;;2.03;;
78732;SDS011;68056;52.530;5.454;2023-09-07T06:26:41;2.15;;;1.90;;
78732;SDS011;68056;52.530;5.454;2023-09-07T06:29:12;2.25;;;1.83;;
78732;SDS011;68056;52.530;5.454;2023-09-07T06:31:50;2.97;;;2.05;;
78732;SDS011;68056;52.530;5.454;2023-09-07T06:34:17;2.30;;;2.10;;
78732;SDS011;68056;52.530;5.454;2023-09-07T06:36:42;3.47;;;1.88;;
78732;SDS011;68056;52.530;5.454;2023-09-07T06:39:08;2.10;;;1.90;;
78732;SDS011;68056;52.530;5.454;2023-09-07T06:41:34;2.35;;;2.15;;
78732;SDS011;68056;52.530;5.454;2023-09-07T06:43:59;2.60;;;1.98;;
78732;SDS011;68056;52.530;5.454;2023-09-07T06:46:25;2.47;;;1.95;;
78732;SDS011;68056;52.530;5.454;2023-09-07T06:48:51;2.13;;;1.92;;
78732;SDS011;68056;52.530;5.454;2023-09-07T06:51:17;1.95;;;1.75;;
78732;SDS011;68056;52.530;5.454;2023-09-07T06:53:42;2.10;;;1.65;;
78732;SDS011;68056;52.530;5.454;2023-09-07T06:56:08;2.00;;;1.80;;
78732;SDS011;68056;52.530;5.454;2023-09-07T06:58:35;2.28;;;2.08;;
78732;SDS011;68056;52.530;5.454;2023-09-07T07:01:01;2.13;;;1.88;;
78732;SDS011;68056;52.530;5.454;2023-09-07T07:03:28;2.92;;;2.30;;
78732;SDS011;68056;52.530;5.454;2023-09-07T07:05:55;2.65;;;2.30;;
78732;SDS011;68056;52.530;5.454;2023-09-07T07:08:21;2.45;;;2.25;;
78732;SDS011;68056;52.530;5.454;2023-09-07T07:10:47;3.20;;;2.08;;
78732;SDS011;68056;52.530;5.454;2023-09-07T07:13:13;1.95;;;1.77;;
78732;SDS011;68056;52.530;5.454;2023-09-07T07:15:39;3.55;;;2.53;;
78732;SDS011;68056;52.530;5.454;2023-09-07T07:18:05;2.97;;;2.50;;
78732;SDS011;68056;52.530;5.454;2023-09-07T07:20:37;3.28;;;2.58;;
78732;SDS011;68056;52.530;5.454;2023-09-07T07:23:03;3.42;;;3.10;;
78732;SDS011;68056;52.530;5.454;2023-09-07T07:25:31;3.15;;;2.40;;
78732;SDS011;68056;52.530;5.454;2023-09-07T07:30:26;3.38;;;2.25;;
78732;SDS011;68056;52.530;5.454;2023-09-07T07:32:54;3.00;;;2.33;;
78732;SDS011;68056;52.530;5.454;2023-09-07T07:35:20;3.20;;;2.47;;
78732;SDS011;68056;52.530;5.454;2023-09-07T07:37:46;2.85;;;2.58;;
78732;SDS011;68056;52.530;5.454;2023-09-07T07:40:11;2.75;;;2.55;;
78732;SDS011;68056;52.530;5.454;2023-09-07T07:42:37;2.60;;;2.20;;
78732;SDS011;68056;52.530;5.454;2023-09-07T07:45:03;3.53;;;2.78;;
78732;SDS011;68056;52.530;5.454;2023-09-07T07:47:29;3.70;;;2.70;;
78732;SDS011;68056;52.530;5.454;2023-09-07T07:49:55;2.95;;;2.50;;
78732;SDS011;68056;52.530;5.454;2023-09-07T07:52:20;2.80;;;2.42;;
78732;SDS011;68056;52.530;5.454;2023-09-07T07:54:47;3.15;;;2.47;;
78732;SDS011;68056;52.530;5.454;2023-09-07T07:57:12;3.45;;;3.15;;
78732;SDS011;68056;52.530;5.454;2023-09-07T07:59:38;3.03;;;2.72;;
78732;SDS011;68056;52.530;5.454;2023-09-07T08:02:03;2.70;;;2.28;;
78732;SDS011;68056;52.530;5.454;2023-09-07T08:04:31;2.78;;;2.50;;
78732;SDS011;68056;52.530;5.454;2023-09-07T08:06:57;3.47;;;2.65;;
78732;SDS011;68056;52.530;5.454;2023-09-07T08:09:28;2.15;;;1.92;;
78732;SDS011;68056;52.530;5.454;2023-09-07T08:11:54;3.33;;;2.72;;
78732;SDS011;68056;52.530;5.454;2023-09-07T08:14:21;2.60;;;2.40;;
78732;SDS011;68056;52.530;5.454;2023-09-07T08:16:47;4.38;;;2.92;;
78732;SDS011;68056;52.530;5.454;2023-09-07T08:19:13;4.78;;;3.00;;
78732;SDS011;68056;52.530;5.454;2023-09-07T08:21:39;3.03;;;2.72;;
78732;SDS011;68056;52.530;5.454;2023-09-07T08:24:07;3.40;;;2.72;;
78732;SDS011;68056;52.530;5.454;2023-09-07T08:26:33;3.50;;;2.50;;
78732;SDS011;68056;52.530;5.454;2023-09-07T08:28:58;2.90;;;2.70;;
78732;SDS011;68056;52.530;5.454;2023-09-07T08:31:24;3.22;;;2.92;;
78732;SDS011;68056;52.530;5.454;2023-09-07T08:33:51;2.90;;;2.60;;
78732;SDS011;68056;52.530;5.454;2023-09-07T08:36:16;3.88;;;2.78;;
78732;SDS011;68056;52.530;5.454;2023-09-07T08:38:42;2.80;;;2.60;;
78732;SDS011;68056;52.530;5.454;2023-09-07T08:41:08;3.58;;;2.63;;
78732;SDS011;68056;52.530;5.454;2023-09-07T08:43:35;2.85;;;2.40;;
78732;SDS011;68056;52.530;5.454;2023-09-07T08:46:14;2.95;;;2.45;;
78732;SDS011;68056;52.530;5.454;2023-09-07T08:48:42;3.40;;;2.63;;
78732;SDS011;68056;52.530;5.454;2023-09-07T08:51:12;3.10;;;2.80;;
78732;SDS011;68056;52.530;5.454;2023-09-07T08:53:39;2.97;;;2.70;;
78732;SDS011;68056;52.530;5.454;2023-09-07T08:56:06;3.63;;;2.95;;
78732;SDS011;68056;52.530;5.454;2023-09-07T08:58:36;3.35;;;2.55;;
78732;SDS011;68056;52.530;5.454;2023-09-07T09:01:01;2.97;;;2.47;;
78732;SDS011;68056;52.530;5.454;2023-09-07T09:03:27;3.67;;;2.80;;
78732;SDS011;68056;52.530;5.454;2023-09-07T09:05:54;3.55;;;2.90;;
78732;SDS011;68056;52.530;5.454;2023-09-07T09:08:21;3.35;;;2.50;;
78732;SDS011;68056;52.530;5.454;2023-09-07T09:10:49;3.15;;;2.83;;
78732;SDS011;68056;52.530;5.454;2023-09-07T09:13:30;4.60;;;3.10;;
78732;SDS011;68056;52.530;5.454;2023-09-07T09:15:58;4.93;;;2.60;;
78732;SDS011;68056;52.530;5.454;2023-09-07T09:18:26;3.38;;;2.60;;
78732;SDS011;68056;52.530;5.454;2023-09-07T09:20:52;3.05;;;2.40;;
78732;SDS011;68056;52.530;5.454;2023-09-07T09:23:21;2.60;;;2.40;;
78732;SDS011;68056;52.530;5.454;2023-09-07T09:25:50;2.92;;;2.63;;
78732;SDS011;68056;52.530;5.454;2023-09-07T09:28:16;2.85;;;2.53;;
78732;SDS011;68056;52.530;5.454;2023-09-07T09:30:42;2.70;;;2.25;;
78732;SDS011;68056;52.530;5.454;2023-09-07T09:33:10;3.58;;;2.85;;
78732;SDS011;68056;52.530;5.454;2023-09-07T09:35:36;2.85;;;2.58;;
78732;SDS011;68056;52.530;5.454;2023-09-07T09:38:05;3.08;;;2.78;;
78732;SDS011;68056;52.530;5.454;2023-09-07T09:40:32;2.95;;;2.40;;
78732;SDS011;68056;52.530;5.454;2023-09-07T09:42:59;3.30;;;2.70;;
78732;SDS011;68056;52.530;5.454;2023-09-07T09:45:27;3.00;;;2.70;;
78732;SDS011;68056;52.530;5.454;2023-09-07T09:47:54;3.45;;;2.70;;
78732;SDS011;68056;52.530;5.454;2023-09-07T09:50:21;3.20;;;2.90;;
78732;SDS011;68056;52.530;5.454;2023-09-07T09:55:13;2.65;;;2.45;;
78732;SDS011;68056;52.530;5.454;2023-09-07T09:57:40;2.50;;;2.22;;
78732;SDS011;68056;52.530;5.454;2023-09-07T10:00:06;4.28;;;2.67;;
78732;SDS011;68056;52.530;5.454;2023-09-07T10:02:42;2.83;;;2.58;;
78732;SDS011;68056;52.530;5.454;2023-09-07T10:05:10;3.13;;;2.63;;
78732;SDS011;68056;52.530;5.454;2023-09-07T10:07:47;2.95;;;2.50;;
78732;SDS011;68056;52.530;5.454;2023-09-07T10:10:15;2.97;;;2.67;;
78732;SDS011;68056;52.530;5.454;2023-09-07T10:12:50;4.07;;;2.42;;
78732;SDS011;68056;52.530;5.454;2023-09-07T10:15:25;3.17;;;2.40;;
78732;SDS011;68056;52.530;5.454;2023-09-07T10:20:55;3.28;;;2.72;;
78732;SDS011;68056;52.530;5.454;2023-09-07T10:26:09;2.60;;;2.40;;
78732;SDS011;68056;52.530;5.454;2023-09-07T10:28:42;2.78;;;2.58;;
78732;SDS011;68056;52.530;5.454;2023-09-07T10:31:16;3.65;;;3.15;;
78732;SDS011;68056;52.530;5.454;2023-09-07T10:33:42;2.83;;;2.55;;
78732;SDS011;68056;52.530;5.454;2023-09-07T10:36:09;2.58;;;2.38;;
78732;SDS011;68056;52.530;5.454;2023-09-07T10:38:51;2.72;;;2.53;;
78732;SDS011;68056;52.530;5.454;2023-09-07T10:41:20;2.90;;;2.65;;
78732;SDS011;68056;52.530;5.454;2023-09-07T10:43:47;2.63;;;2.42;;
78732;SDS011;68056;52.530;5.454;2023-09-07T10:46:14;3.00;;;2.65;;
78732;SDS011;68056;52.530;5.454;2023-09-07T10:48:40;3.20;;;2.60;;
78732;SDS011;68056;52.530;5.454;2023-09-07T10:51:05;3.10;;;2.90;;
78732;SDS011;68056;52.530;5.454;2023-09-07T10:53:32;4.25;;;2.67;;
78732;SDS011;68056;52.530;5.454;2023-09-07T10:56:04;2.65;;;2.45;;
78732;SDS011;68056;52.530;5.454;2023-09-07T11:00:57;2.60;;;2.40;;
78732;SDS011;68056;52.530;5.454;2023-09-07T11:03:26;3.90;;;3.00;;
78732;SDS011;68056;52.530;5.454;2023-09-07T11:06:06;3.17;;;2.83;;
78732;SDS011;68056;52.530;5.454;2023-09-07T11:08:34;3.92;;;2.55;;
78732;SDS011;68056;52.530;5.454;2023-09-07T11:11:01;3.33;;;3.03;;
78732;SDS011;68056;52.530;5.454;2023-09-07T11:13:27;2.92;;;2.63;;
78732;SDS011;68056;52.530;5.454;2023-09-07T11:15:54;3.17;;;2.83;;
78732;SDS011;68056;52.530;5.454;2023-09-07T11:18:21;3.08;;;2.70;;
78732;SDS011;68056;52.530;5.454;2023-09-07T11:20:47;3.30;;;2.63;;
78732;SDS011;68056;52.530;5.454;2023-09-07T11:23:14;2.90;;;2.55;;
78732;SDS011;68056;52.530;5.454;2023-09-07T11:25:41;2.63;;;2.42;;
78732;SDS011;68056;52.530;5.454;2023-09-07T11:28:07;2.88;;;2.67;;
78732;SDS011;68056;52.530;5.454;2023-09-07T11:30:33;2.60;;;2.40;;
78732;SDS011;68056;52.530;5.454;2023-09-07T11:33:06;3.30;;;3.03;;
78732;SDS011;68056;52.530;5.454;2023-09-07T11:35:35;2.63;;;2.42;;
78732;SDS011;68056;52.530;5.454;2023-09-07T11:38:02;3.55;;;3.05;;
78732;SDS011;68056;52.530;5.454;2023-09-07T11:40:32;3.03;;;2.83;;
78732;SDS011;68056;52.530;5.454;2023-09-07T11:42:58;3.58;;;2.55;;
78732;SDS011;68056;52.530;5.454;2023-09-07T11:45:24;2.88;;;2.40;;
78732;SDS011;68056;52.530;5.454;2023-09-07T11:47:49;3.35;;;2.85;;
78732;SDS011;68056;52.530;5.454;2023-09-07T11:50:16;3.00;;;2.45;;
78732;SDS011;68056;52.530;5.454;2023-09-07T11:52:42;3.67;;;2.80;;
78732;SDS011;68056;52.530;5.454;2023-09-07T11:55:08;2.55;;;2.35;;
78732;SDS011;68056;52.530;5.454;2023-09-07T11:57:35;3.50;;;2.63;;
78732;SDS011;68056;52.530;5.454;2023-09-07T12:00:01;2.78;;;2.58;;
78732;SDS011;68056;52.530;5.454;2023-09-07T12:04:53;2.40;;;2.20;;
78732;SDS011;68056;52.530;5.454;2023-09-07T12:07:19;2.97;;;2.15;;
78732;SDS011;68056;52.530;5.454;2023-09-07T12:09:45;3.13;;;2.65;;
78732;SDS011;68056;52.530;5.454;2023-09-07T12:12:10;3.00;;;2.80;;
78732;SDS011;68056;52.530;5.454;2023-09-07T12:14:41;3.03;;;2.40;;
78732;SDS011;68056;52.530;5.454;2023-09-07T12:17:09;3.50;;;2.90;;
78732;SDS011;68056;52.530;5.454;2023-09-07T12:19:35;2.80;;;2.60;;
78732;SDS011;68056;52.530;5.454;2023-09-07T12:22:01;3.00;;;2.70;;
78732;SDS011;68056;52.530;5.454;2023-09-07T12:24:26;2.65;;;2.45;;
78732;SDS011;68056;52.530;5.454;2023-09-07T12:26:52;3.15;;;2.90;;
78732;SDS011;68056;52.530;5.454;2023-09-07T12:29:19;3.10;;;2.80;;
78732;SDS011;68056;52.530;5.454;2023-09-07T12:34:11;3.47;;;3.00;;
78732;SDS011;68056;52.530;5.454;2023-09-07T12:36:36;3.05;;;2.75;;
78732;SDS011;68056;52.530;5.454;2023-09-07T12:39:02;3.67;;;2.83;;
78732;SDS011;68056;52.530;5.454;2023-09-07T12:41:30;3.22;;;2.92;;
78732;SDS011;68056;52.530;5.454;2023-09-07T12:43:55;5.28;;;3.42;;
78732;SDS011;68056;52.530;5.454;2023-09-07T12:46:21;3.03;;;2.72;;
78732;SDS011;68056;52.530;5.454;2023-09-07T12:48:47;3.05;;;2.50;;
78732;SDS011;68056;52.530;5.454;2023-09-07T12:51:13;2.95;;;2.70;;
78732;SDS011;68056;52.530;5.454;2023-09-07T12:53:38;2.83;;;2.63;;
78732;SDS011;68056;52.530;5.454;2023-09-07T12:56:05;2.75;;;2.55;;
78732;SDS011;68056;52.530;5.454;2023-09-07T12:58:30;3.08;;;2.78;;
78732;SDS011;68056;52.530;5.454;2023-09-07T13:00:56;3.03;;;2.83;;
78732;SDS011;68056;52.530;5.454;2023-09-07T13:03:21;3.00;;;2.72;;
78732;SDS011;68056;52.530;5.454;2023-09-07T13:05:47;2.83;;;2.50;;
78732;SDS011;68056;52.530;5.454;2023-09-07T13:08:13;2.75;;;2.55;;
78732;SDS011;68056;52.530;5.454;2023-09-07T13:10:39;3.30;;;3.00;;
78732;SDS011;68056;52.530;5.454;2023-09-07T13:13:05;3.15;;;2.90;;
78732;SDS011;68056;52.530;5.454;2023-09-07T13:15:31;3.38;;;2.70;;
78732;SDS011;68056;52.530;5.454;2023-09-07T13:17:56;2.65;;;2.45;;
78732;SDS011;68056;52.530;5.454;2023-09-07T13:20:22;4.57;;;3.10;;
78732;SDS011;68056;52.530;5.454;2023-09-07T13:22:48;3.63;;;2.92;;
78732;SDS011;68056;52.530;5.454;2023-09-07T13:25:14;4.00;;;3.08;;
78732;SDS011;68056;52.530;5.454;2023-09-07T13:27:40;3.47;;;3.17;;
78732;SDS011;68056;52.530;5.454;2023-09-07T13:30:05;3.60;;;3.30;;
78732;SDS011;68056;52.530;5.454;2023-09-07T13:32:37;3.42;;;3.13;;
78732;SDS011;68056;52.530;5.454;2023-09-07T13:35:03;3.42;;;3.10;;
78732;SDS011;68056;52.530;5.454;2023-09-07T13:37:29;3.30;;;3.00;;
78732;SDS011;68056;52.530;5.454;2023-09-07T13:39:55;3.92;;;3.63;;
78732;SDS011;68056;52.530;5.454;2023-09-07T13:42:21;3.63;;;3.33;;
78732;SDS011;68056;52.530;5.454;2023-09-07T13:44:46;3.63;;;3.22;;
78732;SDS011;68056;52.530;5.454;2023-09-07T13:47:12;3.35;;;2.97;;
78732;SDS011;68056;52.530;5.454;2023-09-07T13:49:44;3.30;;;3.00;;
78732;SDS011;68056;52.530;5.454;2023-09-07T13:52:10;3.40;;;3.10;;
78732;SDS011;68056;52.530;5.454;2023-09-07T13:54:35;3.40;;;3.10;;
78732;SDS011;68056;52.530;5.454;2023-09-07T13:57:01;4.78;;;3.50;;
78732;SDS011;68056;52.530;5.454;2023-09-07T13:59:26;3.75;;;3.40;;
78732;SDS011;68056;52.530;5.454;2023-09-07T14:01:57;3.22;;;2.92;;
78732;SDS011;68056;52.530;5.454;2023-09-07T14:04:23;3.33;;;3.03;;
78732;SDS011;68056;52.530;5.454;2023-09-07T14:06:48;3.70;;;3.10;;
78732;SDS011;68056;52.530;5.454;2023-09-07T14:09:14;3.40;;;3.10;;
78732;SDS011;68056;52.530;5.454;2023-09-07T14:11:40;3.72;;;3.42;;
78732;SDS011;68056;52.530;5.454;2023-09-07T14:14:05;2.90;;;2.70;;
78732;SDS011;68056;52.530;5.454;2023-09-07T14:16:41;3.60;;;3.08;;
78732;SDS011;68056;52.530;5.454;2023-09-07T14:19:07;4.32;;;3.17;;
78732;SDS011;68056;52.530;5.454;2023-09-07T14:21:32;3.45;;;3.15;;
78732;SDS011;68056;52.530;5.454;2023-09-07T14:23:58;3.47;;;3.17;;
78732;SDS011;68056;52.530;5.454;2023-09-07T14:26:24;3.53;;;3.03;;
78732;SDS011;68056;52.530;5.454;2023-09-07T14:28:49;4.95;;;3.47;;
78732;SDS011;68056;52.530;5.454;2023-09-07T14:31:15;3.35;;;3.05;;
78732;SDS011;68056;52.530;5.454;2023-09-07T14:33:41;3.65;;;3.28;;
78732;SDS011;68056;52.530;5.454;2023-09-07T14:36:19;3.25;;;2.95;;
78732;SDS011;68056;52.530;5.454;2023-09-07T14:38:45;3.25;;;2.95;;
78732;SDS011;68056;52.530;5.454;2023-09-07T14:41:23;3.28;;;2.97;;
78732;SDS011;68056;52.530;5.454;2023-09-07T14:43:48;3.38;;;2.70;;
78732;SDS011;68056;52.530;5.454;2023-09-07T14:46:15;3.90;;;3.08;;
78732;SDS011;68056;52.530;5.454;2023-09-07T14:48:40;3.30;;;2.92;;
78732;SDS011;68056;52.530;5.454;2023-09-07T14:51:07;3.13;;;2.85;;
78732;SDS011;68056;52.530;5.454;2023-09-07T14:53:33;3.10;;;2.80;;
78732;SDS011;68056;52.530;5.454;2023-09-07T14:55:59;3.53;;;2.70;;
78732;SDS011;68056;52.530;5.454;2023-09-07T14:58:25;3.05;;;2.75;;
78732;SDS011;68056;52.530;5.454;2023-09-07T15:00:50;2.60;;;2.40;;
78732;SDS011;68056;52.530;5.454;2023-09-07T15:03:16;3.55;;;3.20;;
78732;SDS011;68056;52.530;5.454;2023-09-07T15:05:41;3.58;;;3.05;;
78732;SDS011;68056;52.530;5.454;2023-09-07T15:08:07;2.80;;;2.60;;
78732;SDS011;68056;52.530;5.454;2023-09-07T15:10:33;3.47;;;2.70;;
78732;SDS011;68056;52.530;5.454;2023-09-07T15:12:59;3.22;;;2.92;;